Terminal Aerodrome Forecast
Issued by NWS Charleston, SC

Home | Current Version | Previous Version | Text Only | Print | Product List | Glossary On
Versions: 1 2 3 4 5 6 7 8 9 10 11 12 13 14 15 16 17 18 19 20
000
FTUS42 KCHS 020535
TAFCHS
TAF
KCHS 020535Z 0206/0306 33004KT 1/4SM -DZ FG OVC002
     FM021500 29006KT 5SM BR SCT002 OVC008
     FM021800 30008KT P6SM BKN025
     FM030000 07008KT P6SM SCT005 BKN015=

USA.gov is the U.S. government's official web portal to all federal, state and local government web resources and services.